createdAt,value
2019-01-27T00:01:29.717Z,29.50
2019-01-27T00:04:45.776Z,29.50
2019-01-27T00:08:01.074Z,29.50
2019-01-27T00:11:16.986Z,29.70
2019-01-27T00:14:33.107Z,29.50
2019-01-27T00:17:49.278Z,29.60
2019-01-27T00:21:02.924Z,29.80
2019-01-27T00:24:25.626Z,29.50
2019-01-27T00:27:41.597Z,29.40
2019-01-27T00:30:57.573Z,29.60
2019-01-27T00:34:13.402Z,29.60
2019-01-27T00:37:29.475Z,29.40
2019-01-27T00:40:45.354Z,29.00
2019-01-27T00:44:00.689Z,29.40
2019-01-27T00:47:16.822Z,29.50
2019-01-27T00:50:32.792Z,29.60
2019-01-27T00:53:48.598Z,29.40
2019-01-27T00:57:04.654Z,29.50
2019-01-27T01:00:20.610Z,29.40
2019-01-27T01:03:36.753Z,29.50
2019-01-27T01:06:52.678Z,29.40
2019-01-27T01:10:08.291Z,29.50
2019-01-27T01:13:24.335Z,29.50
2019-01-27T01:16:40.186Z,29.50
2019-01-27T01:19:56.228Z,29.40
2019-01-27T01:23:12.178Z,29.40
2019-01-27T01:26:28.292Z,29.40
2019-01-27T01:29:41.875Z,29.50
2019-01-27T01:33:04.579Z,29.50
2019-01-27T01:36:20.454Z,29.30
2019-01-27T01:39:36.360Z,29.50
2019-01-27T01:42:52.365Z,29.40
2019-01-27T01:46:08.322Z,29.50
2019-01-27T01:49:24.350Z,29.30
2019-01-27T01:52:40.209Z,29.50
2019-01-27T01:55:55.482Z,29.50
2019-01-27T01:59:10.777Z,29.30
2019-01-27T02:02:26.587Z,29.50
2019-01-27T02:05:42.442Z,29.40
2019-01-27T02:08:58.342Z,29.40
2019-01-27T02:12:13.602Z,29.50
2019-01-27T02:15:28.891Z,29.80
2019-01-27T02:18:51.576Z,29.50
2019-01-27T02:22:07.085Z,29.30
2019-01-27T02:25:22.881Z,29.50
2019-01-27T02:28:38.922Z,29.50
2019-01-27T02:31:54.932Z,29.30
2019-01-27T02:35:10.274Z,29.50
2019-01-27T02:38:26.261Z,29.50
2019-01-27T02:41:42.165Z,29.50
2019-01-27T02:44:58.299Z,29.50
2019-01-27T02:48:14.989Z,29.30
2019-01-27T02:51:30.769Z,29.30
2019-01-27T02:54:46.555Z,29.40
2019-01-27T02:58:00.185Z,29.30
2019-01-27T03:01:15.805Z,29.30
2019-01-27T03:04:31.426Z,29.50
2019-01-27T03:07:47.607Z,29.50
2019-01-27T03:11:03.124Z,29.40
2019-01-27T03:14:18.967Z,29.50
2019-01-27T03:17:32.722Z,29.40
2019-01-27T03:20:55.437Z,29.30
2019-01-27T03:24:10.898Z,29.50
2019-01-27T03:27:26.818Z,29.50
2019-01-27T03:30:42.989Z,29.30
2019-01-27T03:33:56.562Z,29.50
2019-01-27T03:37:12.192Z,29.50
2019-01-27T03:40:28.072Z,29.50
2019-01-27T03:43:44.248Z,29.30
2019-01-27T03:47:00.169Z,29.50
2019-01-27T03:50:16.204Z,29.40
2019-01-27T03:53:32.206Z,29.40
2019-01-27T03:56:48.147Z,29.40
2019-01-27T04:00:04.046Z,29.40
2019-01-27T04:03:20.193Z,29.40
2019-01-27T04:06:33.937Z,29.40
2019-01-27T04:09:56.714Z,29.50
2019-01-27T04:13:12.067Z,29.40
2019-01-27T04:16:27.396Z,29.40
2019-01-27T04:19:43.285Z,29.30
2019-01-27T04:22:58.536Z,29.30
2019-01-27T04:26:13.935Z,29.40
2019-01-27T04:29:29.930Z,29.30
2019-01-27T04:32:46.062Z,29.30
2019-01-27T04:36:01.459Z,29.50
2019-01-27T04:39:16.890Z,29.40
2019-01-27T04:42:32.241Z,29.50
2019-01-27T04:45:47.506Z,29.40
2019-01-27T04:49:03.439Z,29.40
2019-01-27T04:52:19.554Z,29.40
2019-01-27T04:55:35.470Z,29.30
2019-01-27T04:58:51.538Z,29.50
2019-01-27T05:02:07.724Z,29.40
2019-01-27T05:05:23.695Z,29.50
2019-01-27T05:08:39.805Z,29.50
2019-01-27T05:11:55.895Z,29.50
2019-01-27T05:15:11.462Z,29.30
2019-01-27T05:18:27.162Z,29.50
2019-01-27T05:21:42.943Z,29.40
2019-01-27T05:24:59.192Z,29.30
2019-01-27T05:28:15.439Z,29.30
2019-01-27T05:31:31.419Z,29.40
2019-01-27T05:34:45.152Z,29.40
2019-01-27T05:38:00.535Z,29.40
2019-01-27T05:41:15.858Z,29.30
2019-01-27T05:44:31.827Z,29.40
2019-01-27T05:47:47.962Z,29.40
2019-01-27T05:51:04.441Z,29.20
2019-01-27T05:54:07.705Z,29.40
2019-01-27T05:57:30.496Z,29.40
2019-01-27T06:00:53.186Z,29.30
2019-01-27T06:04:08.822Z,29.30
2019-01-27T06:07:25.129Z,29.40
2019-01-27T06:10:41.291Z,29.30
2019-01-27T06:13:57.087Z,29.40
2019-01-27T06:17:12.943Z,29.20
2019-01-27T06:20:28.926Z,29.20
2019-01-27T06:23:44.746Z,29.40
2019-01-27T06:27:00.743Z,29.20
2019-01-27T06:30:16.470Z,29.40
2019-01-27T06:33:34.039Z,29.40
2019-01-27T06:36:49.379Z,29.40
2019-01-27T06:40:04.821Z,29.30
2019-01-27T06:43:20.911Z,29.20
2019-01-27T06:46:37.125Z,29.40
2019-01-27T06:49:52.763Z,29.40
2019-01-27T06:53:08.930Z,29.20
2019-01-27T06:56:24.688Z,29.20
2019-01-27T06:59:41.581Z,29.20
2019-01-27T07:03:01.823Z,29.40
2019-01-27T07:06:22.433Z,29.20
2019-01-27T07:09:43.039Z,29.20
2019-01-27T07:13:00.926Z,29.40
2019-01-27T07:16:17.846Z,29.20
2019-01-27T07:19:37.398Z,29.30
2019-01-27T07:23:12.225Z,29.20
2019-01-27T07:26:47.229Z,29.20
2019-01-27T07:30:21.893Z,29.30
2019-01-27T07:37:27.089Z,29.30
2019-01-27T07:48:12.788Z,29.30
2019-01-27T07:51:47.410Z,29.20
2019-01-27T07:55:07.262Z,29.20
2019-01-27T07:58:41.903Z,29.20
2019-01-27T08:01:58.931Z,29.40
2019-01-27T08:05:15.856Z,29.20
2019-01-27T08:08:36.586Z,29.20
2019-01-27T08:12:11.137Z,29.40
2019-01-27T08:15:28.397Z,29.40
2019-01-27T08:18:45.414Z,29.30
2019-01-27T08:22:05.559Z,29.40
2019-01-27T08:25:40.018Z,29.50
2019-01-27T08:28:57.365Z,29.60
2019-01-27T08:32:14.318Z,29.70
2019-01-27T08:35:36.972Z,30.00
2019-01-27T08:39:11.674Z,29.90
2019-01-27T08:45:56.831Z,30.00
2019-01-27T08:49:12.157Z,30.00
2019-01-27T08:52:28.011Z,30.20
2019-01-27T08:55:43.522Z,30.10
2019-01-27T08:58:59.618Z,30.20
2019-01-27T09:02:34.243Z,30.20
2019-01-27T09:05:51.214Z,30.20
2019-01-27T09:09:08.194Z,30.20
2019-01-27T09:12:42.654Z,30.10
2019-01-27T09:16:03.220Z,30.10
2019-01-27T09:19:20.198Z,30.10
2019-01-27T09:22:37.177Z,30.30
2019-01-27T09:25:54.149Z,30.30
2019-01-27T09:29:11.146Z,30.20
2019-01-27T09:32:28.029Z,30.20
2019-01-27T09:35:47.965Z,30.30
2019-01-27T09:39:08.227Z,30.30
2019-01-27T09:42:25.841Z,30.30
2019-01-27T09:45:43.593Z,30.20
2019-01-27T09:49:00.722Z,30.10
2019-01-27T09:52:35.662Z,30.30
2019-01-27T09:55:52.931Z,30.20
2019-01-27T09:59:12.762Z,30.30
2019-01-27T10:02:34.844Z,30.10
2019-01-27T10:06:07.061Z,30.40
2019-01-27T10:09:24.383Z,30.40
2019-01-27T10:12:58.875Z,30.10
2019-01-27T10:16:33.306Z,30.20
2019-01-27T10:20:08.170Z,30.10
2019-01-27T10:23:25.029Z,30.90
2019-01-27T10:26:41.986Z,30.20
2019-01-27T10:29:58.993Z,30.00
2019-01-27T10:33:33.602Z,30.20
2019-01-27T10:37:12.140Z,30.10
2019-01-27T10:40:29.989Z,30.10
2019-01-27T10:47:18.110Z,30.00
2019-01-27T10:50:35.255Z,30.10
2019-01-27T10:53:52.340Z,30.00
2019-01-27T11:00:50.964Z,30.00
2019-01-27T11:04:08.695Z,30.00
2019-01-27T11:07:28.346Z,30.10
2019-01-27T11:10:45.922Z,30.00
2019-01-27T11:14:21.191Z,30.10
2019-01-27T11:17:55.646Z,30.20
2019-01-27T11:21:15.729Z,30.20
2019-01-27T11:31:29.512Z,30.00
2019-01-27T11:34:47.263Z,30.00
2019-01-27T11:38:05.119Z,29.80
2019-01-27T11:41:25.250Z,29.80
2019-01-27T11:51:36.207Z,29.90
2019-01-27T11:54:52.158Z,29.70
2019-01-27T11:58:08.118Z,29.90
2019-01-27T12:01:23.805Z,29.80
2019-01-27T12:04:39.850Z,29.80
2019-01-27T12:07:54.994Z,29.70
2019-01-27T12:11:10.335Z,29.60
2019-01-27T12:14:23.930Z,29.60
2019-01-27T12:17:46.619Z,29.80
2019-01-27T12:21:01.977Z,29.60
2019-01-27T12:24:17.658Z,29.70
2019-01-27T12:27:33.499Z,29.70
2019-01-27T12:30:49.602Z,29.50
2019-01-27T12:34:04.803Z,29.70
2019-01-27T12:37:20.050Z,29.50
2019-01-27T12:40:35.429Z,29.50
2019-01-27T12:43:38.751Z,29.70
2019-01-27T12:47:01.442Z,29.70
2019-01-27T12:50:24.130Z,29.60
2019-01-27T12:53:40.147Z,29.50
2019-01-27T12:56:55.500Z,29.50
2019-01-27T13:00:10.823Z,29.40
2019-01-27T13:03:26.009Z,29.40
2019-01-27T13:06:41.947Z,29.70
2019-01-27T13:09:57.738Z,29.70
2019-01-27T13:13:13.211Z,29.60
2019-01-27T13:16:30.116Z,29.60
2019-01-27T13:19:46.034Z,29.40
2019-01-27T13:23:01.965Z,29.60
2019-01-27T13:26:19.554Z,29.40
2019-01-27T13:29:34.878Z,29.60
2019-01-27T13:32:50.897Z,29.60
2019-01-27T13:36:06.833Z,29.50
2019-01-27T13:39:23.462Z,29.50
2019-01-27T13:42:39.337Z,29.40
2019-01-27T13:45:55.274Z,29.40
2019-01-27T13:49:14.101Z,29.60
2019-01-27T13:52:29.874Z,29.50
2019-01-27T13:55:45.846Z,29.50
2019-01-27T14:02:18.723Z,29.50
2019-01-27T14:05:34.565Z,29.40
2019-01-27T14:08:50.580Z,29.50
2019-01-27T14:12:06.582Z,29.70
2019-01-27T14:15:21.982Z,29.50
2019-01-27T14:18:35.644Z,29.70
2019-01-27T14:21:51.202Z,29.70
2019-01-27T14:25:07.149Z,29.60
2019-01-27T14:28:20.771Z,29.60
2019-01-27T14:31:36.257Z,29.50
2019-01-27T14:34:52.349Z,29.50
2019-01-27T14:38:08.224Z,29.40
2019-01-27T14:41:24.212Z,29.60
2019-01-27T14:44:39.506Z,29.80
2019-01-27T14:47:54.799Z,29.50
2019-01-27T14:51:10.863Z,29.50
2019-01-27T14:54:26.134Z,29.30
2019-01-27T14:57:42.054Z,29.50
2019-01-27T15:00:57.439Z,29.40
2019-01-27T15:04:15.418Z,29.50
2019-01-27T15:07:30.344Z,29.50
2019-01-27T15:10:46.461Z,29.60
2019-01-27T15:17:49.822Z,29.10
2019-01-27T15:21:05.920Z,29.50
2019-01-27T15:24:21.926Z,29.50
2019-01-27T15:27:37.766Z,29.30
2019-01-27T15:30:53.614Z,29.40
2019-01-27T15:34:09.726Z,29.50
2019-01-27T15:37:25.830Z,29.50
2019-01-27T15:40:39.491Z,29.40
2019-01-27T15:44:02.174Z,29.20
2019-01-27T15:47:15.759Z,29.40
2019-01-27T15:50:38.458Z,29.30
2019-01-27T15:53:53.851Z,29.40
2019-01-27T15:57:09.877Z,29.30
2019-01-27T16:00:25.183Z,29.30
2019-01-27T16:03:41.218Z,29.40
2019-01-27T16:06:57.176Z,29.20
2019-01-27T16:10:11.901Z,29.30
2019-01-27T16:13:27.659Z,29.30
2019-01-27T16:16:43.175Z,29.20
2019-01-27T16:19:59.217Z,29.30
2019-01-27T16:26:44.698Z,29.40
2019-01-27T16:30:02.304Z,29.40
2019-01-27T16:36:46.203Z,29.40
2019-01-27T16:40:02.207Z,29.20
2019-01-27T16:43:18.091Z,29.40
2019-01-27T16:46:34.210Z,29.40
2019-01-27T16:49:50.239Z,29.20
2019-01-27T16:53:05.455Z,29.30
2019-01-27T16:56:20.811Z,29.20
2019-01-27T16:59:36.066Z,29.20
2019-01-27T17:02:52.156Z,29.20
2019-01-27T17:06:07.554Z,29.40
2019-01-27T17:09:23.191Z,29.20
2019-01-27T17:12:39.331Z,29.30
2019-01-27T17:15:55.009Z,29.30
2019-01-27T17:19:11.065Z,29.20
2019-01-27T17:22:26.794Z,29.40
2019-01-27T17:25:42.622Z,29.40
2019-01-27T17:28:58.658Z,29.40
2019-01-27T17:32:14.405Z,29.40
2019-01-27T17:35:29.546Z,29.40
2019-01-27T17:38:45.518Z,29.40
2019-01-27T17:42:01.474Z,29.40
2019-01-27T17:45:16.702Z,29.30
2019-01-27T17:48:34.927Z,29.20
2019-01-27T17:51:50.255Z,29.20
2019-01-27T17:55:06.043Z,29.30
2019-01-27T17:58:40.857Z,29.20
2019-01-27T18:02:15.483Z,29.70
2019-01-27T18:05:33.084Z,29.20
2019-01-27T18:09:07.433Z,29.30
2019-01-27T18:12:24.398Z,29.30
2019-01-27T18:15:40.434Z,29.30
2019-01-27T18:18:56.306Z,29.20
2019-01-27T18:22:09.894Z,29.30
2019-01-27T18:25:32.654Z,29.30
2019-01-27T18:28:51.819Z,29.30
2019-01-27T18:32:05.059Z,29.20
2019-01-27T18:35:20.824Z,29.30
2019-01-27T18:38:36.744Z,29.20
2019-01-27T18:41:52.699Z,29.30
2019-01-27T18:45:07.921Z,29.20
2019-01-27T18:48:24.002Z,29.80
2019-01-27T18:51:40.022Z,29.40
2019-01-27T18:54:57.735Z,29.20
2019-01-27T18:58:32.335Z,29.20
2019-01-27T19:02:07.261Z,29.40
2019-01-27T19:05:24.430Z,29.30
2019-01-27T19:08:41.291Z,29.20
2019-01-27T19:12:15.887Z,29.30
2019-01-27T19:19:32.519Z,29.30
2019-01-27T19:26:26.522Z,29.30
2019-01-27T19:33:13.152Z,29.20
2019-01-27T19:36:47.717Z,29.10
2019-01-27T19:40:03.006Z,29.30
2019-01-27T19:43:44.883Z,29.30
2019-01-27T19:47:02.583Z,29.10
2019-01-27T19:53:49.545Z,29.30
2019-01-27T19:57:24.045Z,29.20
2019-01-27T20:00:58.679Z,29.10
2019-01-27T20:04:15.867Z,29.10
2019-01-27T20:07:50.289Z,29.20
2019-01-27T20:11:25.078Z,29.10
2019-01-27T20:21:43.960Z,29.10
2019-01-27T20:25:18.547Z,29.30
2019-01-27T20:28:53.230Z,29.30
2019-01-27T20:32:27.939Z,29.30
2019-01-27T20:36:03.057Z,29.30
2019-01-27T20:43:06.199Z,29.30
2019-01-27T20:46:23.952Z,29.30
2019-01-27T20:53:16.290Z,29.20
2019-01-27T20:56:33.130Z,29.10
2019-01-27T20:59:48.417Z,29.00
2019-01-27T21:03:30.305Z,29.30
2019-01-27T21:06:48.004Z,29.10
2019-01-27T21:10:22.669Z,29.30
2019-01-27T21:13:42.454Z,29.00
2019-01-27T21:17:19.454Z,29.10
2019-01-27T21:20:34.908Z,29.20
2019-01-27T21:23:51.684Z,29.10
2019-01-27T21:27:06.995Z,29.30
2019-01-27T21:30:27.717Z,29.20
2019-01-27T21:33:43.220Z,29.10
2019-01-27T21:36:59.131Z,29.10
2019-01-27T21:40:15.231Z,29.10
2019-01-27T21:43:32.507Z,29.10
2019-01-27T21:46:48.549Z,29.20
2019-01-27T21:50:04.485Z,29.10
2019-01-27T21:53:20.343Z,29.20
2019-01-27T21:56:36.024Z,29.00
2019-01-27T21:59:52.195Z,29.20
2019-01-27T22:03:07.617Z,29.10
2019-01-27T22:06:23.751Z,29.00
2019-01-27T22:09:39.040Z,29.10
2019-01-27T22:12:52.598Z,29.00
2019-01-27T22:16:08.443Z,29.40
2019-01-27T22:19:24.550Z,29.20
2019-01-27T22:22:39.819Z,29.00
2019-01-27T22:25:55.080Z,29.10
2019-01-27T22:29:10.425Z,29.10
2019-01-27T22:32:26.437Z,29.00
2019-01-27T22:35:42.627Z,29.20
2019-01-27T22:38:58.484Z,29.10
2019-01-27T22:42:13.703Z,29.00
2019-01-27T22:45:29.734Z,29.10
2019-01-27T22:48:45.723Z,29.10
2019-01-27T22:52:01.140Z,29.30
2019-01-27T22:55:16.429Z,29.60
2019-01-27T22:58:32.240Z,29.00
2019-01-27T23:01:47.392Z,29.10
2019-01-27T23:05:03.670Z,29.20
2019-01-27T23:08:17.202Z,29.10
2019-01-27T23:11:32.704Z,29.20
2019-01-27T23:14:47.984Z,29.10
2019-01-27T23:18:01.714Z,29.10
2019-01-27T23:21:24.387Z,29.20
2019-01-27T23:24:39.887Z,29.20
2019-01-27T23:27:55.900Z,29.10
2019-01-27T23:31:11.821Z,29.00
2019-01-27T23:34:25.368Z,29.00
2019-01-27T23:37:40.975Z,29.20
2019-01-27T23:40:56.725Z,29.20
2019-01-27T23:44:12.780Z,29.00
2019-01-27T23:47:28.604Z,29.20
2019-01-27T23:50:43.915Z,29.00
2019-01-27T23:53:59.696Z,29.10
2019-01-27T23:57:15.801Z,29.20
